TimeEDT,TemperatureF,Dew PointF,Humidity,Sea Level PressureIn,VisibilityMPH,Wind Direction,Wind SpeedMPH,Gust SpeedMPH,PrecipitationIn,Events,Conditions,WindDirDegrees,DateUTC
12:54 AM,63.0,57.9,84,30.07,10.0,SW,4.6,-,N/A,,Clear,220,2013-08-20 04:54:00
1:54 AM,62.1,57.9,86,30.07,10.0,SW,5.8,-,N/A,,Clear,230,2013-08-20 05:54:00
2:54 AM,62.1,57.9,86,30.07,10.0,SW,6.9,-,N/A,,Clear,230,2013-08-20 06:54:00
3:54 AM,61.0,57.9,90,30.08,9.0,SW,6.9,-,N/A,,Clear,230,2013-08-20 07:54:00
4:54 AM,60.1,57.0,90,30.09,8.0,SW,5.8,-,N/A,,Clear,230,2013-08-20 08:54:00
5:54 AM,60.1,57.0,90,30.10,7.0,WSW,5.8,-,N/A,,Partly Cloudy,240,2013-08-20 09:54:00
6:54 AM,60.1,57.0,90,30.12,6.0,SW,5.8,-,N/A,,Partly Cloudy,230,2013-08-20 10:54:00
7:54 AM,63.0,59.0,87,30.14,9.0,SW,9.2,-,N/A,,Partly Cloudy,230,2013-08-20 11:54:00
8:54 AM,66.9,59.0,76,30.14,10.0,SW,6.9,-,N/A,,Clear,220,2013-08-20 12:54:00
9:54 AM,72.0,61.0,68,30.14,10.0,SW,8.1,-,N/A,,Clear,230,2013-08-20 13:54:00
10:54 AM,78.1,63.0,60,30.14,10.0,WSW,11.5,-,N/A,,Partly Cloudy,240,2013-08-20 14:54:00
11:54 AM,80.1,61.0,52,30.14,10.0,WSW,6.9,-,N/A,,Partly Cloudy,250,2013-08-20 15:54:00
12:54 PM,82.0,59.0,45,30.13,10.0,WNW,10.4,16.1,N/A,,Partly Cloudy,290,2013-08-20 16:54:00
1:54 PM,82.9,59.0,44,30.13,10.0,West,11.5,16.1,N/A,,Scattered Clouds,260,2013-08-20 17:54:00
2:54 PM,84.0,59.0,43,30.12,10.0,WSW,9.2,21.9,N/A,,Partly Cloudy,250,2013-08-20 18:54:00
3:54 PM,82.9,57.9,42,30.12,10.0,WSW,9.2,-,N/A,,Partly Cloudy,250,2013-08-20 19:54:00
4:54 PM,82.9,57.9,42,30.10,10.0,WSW,9.2,-,N/A,,Partly Cloudy,240,2013-08-20 20:54:00
5:54 PM,82.0,60.1,47,30.11,10.0,WSW,10.4,-,N/A,,Clear,240,2013-08-20 21:54:00
6:54 PM,80.1,61.0,52,30.11,10.0,WSW,6.9,-,N/A,,Clear,250,2013-08-20 22:54:00
7:54 PM,77.0,61.0,58,30.11,10.0,WSW,3.5,-,N/A,,Clear,240,2013-08-20 23:54:00
8:54 PM,72.0,61.0,68,30.12,10.0,SW,5.8,-,N/A,,Clear,220,2013-08-21 00:54:00
9:54 PM,69.1,60.1,73,30.13,10.0,WSW,8.1,-,N/A,,Clear,240,2013-08-21 01:54:00
10:54 PM,69.1,60.1,73,30.14,10.0,WSW,6.9,-,N/A,,Clear,250,2013-08-21 02:54:00
11:54 PM,66.9,60.1,79,30.14,10.0,SW,5.8,-,N/A,,Clear,220,2013-08-21 03:54:00